sensor_id;sensor_type;location;lat;lon;timestamp;P1;durP1;ratioP1;P2;durP2;ratioP2
39540;SDS011;25219;52.244;21.006;2024-02-26T00:01:20;19.10;;;9.75;;
39540;SDS011;25219;52.244;21.006;2024-02-26T00:03:46;19.33;;;9.90;;
39540;SDS011;25219;52.244;21.006;2024-02-26T00:06:12;20.30;;;10.02;;
39540;SDS011;25219;52.244;21.006;2024-02-26T00:08:37;24.63;;;10.50;;
39540;SDS011;25219;52.244;21.006;2024-02-26T00:11:02;23.77;;;10.30;;
39540;SDS011;25219;52.244;21.006;2024-02-26T00:13:28;18.98;;;9.85;;
39540;SDS011;25219;52.244;21.006;2024-02-26T00:15:53;20.67;;;10.35;;
39540;SDS011;25219;52.244;21.006;2024-02-26T00:18:18;21.47;;;10.40;;
39540;SDS011;25219;52.244;21.006;2024-02-26T00:20:43;27.50;;;11.37;;
39540;SDS011;25219;52.244;21.006;2024-02-26T00:23:08;40.20;;;17.73;;
39540;SDS011;25219;52.244;21.006;2024-02-26T00:25:34;33.30;;;14.30;;
39540;SDS011;25219;52.244;21.006;2024-02-26T00:27:59;24.48;;;10.98;;
39540;SDS011;25219;52.244;21.006;2024-02-26T00:30:24;26.27;;;12.10;;
39540;SDS011;25219;52.244;21.006;2024-02-26T00:32:49;22.98;;;11.63;;
39540;SDS011;25219;52.244;21.006;2024-02-26T00:35:14;26.02;;;11.75;;
39540;SDS011;25219;52.244;21.006;2024-02-26T00:37:40;22.92;;;12.18;;
39540;SDS011;25219;52.244;21.006;2024-02-26T00:40:08;27.45;;;11.50;;
39540;SDS011;25219;52.244;21.006;2024-02-26T00:42:34;24.25;;;11.63;;
39540;SDS011;25219;52.244;21.006;2024-02-26T00:44:59;21.87;;;12.20;;
39540;SDS011;25219;52.244;21.006;2024-02-26T00:47:24;26.90;;;11.57;;
39540;SDS011;25219;52.244;21.006;2024-02-26T00:49:49;22.80;;;12.13;;
39540;SDS011;25219;52.244;21.006;2024-02-26T00:52:14;23.85;;;12.48;;
39540;SDS011;25219;52.244;21.006;2024-02-26T00:54:39;25.17;;;11.60;;
39540;SDS011;25219;52.244;21.006;2024-02-26T00:57:04;25.10;;;11.87;;
39540;SDS011;25219;52.244;21.006;2024-02-26T00:59:30;23.23;;;10.93;;
39540;SDS011;25219;52.244;21.006;2024-02-26T01:01:55;29.40;;;12.43;;
39540;SDS011;25219;52.244;21.006;2024-02-26T01:04:20;26.43;;;13.27;;
39540;SDS011;25219;52.244;21.006;2024-02-26T01:06:45;25.23;;;11.60;;
39540;SDS011;25219;52.244;21.006;2024-02-26T01:09:10;23.93;;;11.13;;
39540;SDS011;25219;52.244;21.006;2024-02-26T01:11:35;42.63;;;24.67;;
39540;SDS011;25219;52.244;21.006;2024-02-26T01:14:01;52.50;;;27.20;;
39540;SDS011;25219;52.244;21.006;2024-02-26T01:16:26;44.43;;;24.83;;
39540;SDS011;25219;52.244;21.006;2024-02-26T01:18:53;55.45;;;28.23;;
39540;SDS011;25219;52.244;21.006;2024-02-26T01:21:18;51.15;;;27.27;;
39540;SDS011;25219;52.244;21.006;2024-02-26T01:23:44;53.35;;;25.83;;
39540;SDS011;25219;52.244;21.006;2024-02-26T01:26:09;52.78;;;27.48;;
39540;SDS011;25219;52.244;21.006;2024-02-26T01:28:34;47.25;;;24.38;;
39540;SDS011;25219;52.244;21.006;2024-02-26T01:30:59;43.20;;;23.83;;
39540;SDS011;25219;52.244;21.006;2024-02-26T01:33:25;43.83;;;20.58;;
39540;SDS011;25219;52.244;21.006;2024-02-26T01:35:50;32.83;;;14.90;;
39540;SDS011;25219;52.244;21.006;2024-02-26T01:38:16;31.10;;;15.77;;
39540;SDS011;25219;52.244;21.006;2024-02-26T01:40:41;27.27;;;13.67;;
39540;SDS011;25219;52.244;21.006;2024-02-26T01:43:06;26.77;;;13.48;;
39540;SDS011;25219;52.244;21.006;2024-02-26T01:45:31;20.40;;;11.18;;
39540;SDS011;25219;52.244;21.006;2024-02-26T01:47:56;29.10;;;14.33;;
39540;SDS011;25219;52.244;21.006;2024-02-26T01:50:22;27.70;;;13.00;;
39540;SDS011;25219;52.244;21.006;2024-02-26T01:52:47;27.60;;;12.63;;
39540;SDS011;25219;52.244;21.006;2024-02-26T01:55:14;23.90;;;11.07;;
39540;SDS011;25219;52.244;21.006;2024-02-26T01:57:40;28.70;;;11.30;;
39540;SDS011;25219;52.244;21.006;2024-02-26T02:00:06;24.13;;;12.00;;
39540;SDS011;25219;52.244;21.006;2024-02-26T02:02:33;24.42;;;11.40;;
39540;SDS011;25219;52.244;21.006;2024-02-26T02:04:58;27.27;;;11.90;;
39540;SDS011;25219;52.244;21.006;2024-02-26T02:07:23;22.63;;;10.23;;
39540;SDS011;25219;52.244;21.006;2024-02-26T02:09:49;23.35;;;11.75;;
39540;SDS011;25219;52.244;21.006;2024-02-26T02:12:15;23.25;;;10.95;;
39540;SDS011;25219;52.244;21.006;2024-02-26T02:14:40;23.53;;;11.00;;
39540;SDS011;25219;52.244;21.006;2024-02-26T02:17:06;23.13;;;11.15;;
39540;SDS011;25219;52.244;21.006;2024-02-26T02:19:31;23.38;;;11.00;;
39540;SDS011;25219;52.244;21.006;2024-02-26T02:21:56;21.20;;;11.35;;
39540;SDS011;25219;52.244;21.006;2024-02-26T02:24:22;20.50;;;10.80;;
39540;SDS011;25219;52.244;21.006;2024-02-26T02:26:47;20.20;;;9.80;;
39540;SDS011;25219;52.244;21.006;2024-02-26T02:29:12;22.58;;;11.15;;
39540;SDS011;25219;52.244;21.006;2024-02-26T02:31:37;20.88;;;10.45;;
39540;SDS011;25219;52.244;21.006;2024-02-26T02:34:03;21.58;;;10.55;;
39540;SDS011;25219;52.244;21.006;2024-02-26T02:36:28;21.27;;;10.37;;
39540;SDS011;25219;52.244;21.006;2024-02-26T02:38:53;19.70;;;10.43;;
39540;SDS011;25219;52.244;21.006;2024-02-26T02:41:18;21.50;;;10.43;;
39540;SDS011;25219;52.244;21.006;2024-02-26T02:43:44;20.23;;;10.43;;
39540;SDS011;25219;52.244;21.006;2024-02-26T02:46:09;22.08;;;11.05;;
39540;SDS011;25219;52.244;21.006;2024-02-26T02:48:36;25.33;;;11.15;;
39540;SDS011;25219;52.244;21.006;2024-02-26T02:51:01;28.50;;;11.25;;
39540;SDS011;25219;52.244;21.006;2024-02-26T02:53:26;22.67;;;10.40;;
39540;SDS011;25219;52.244;21.006;2024-02-26T02:55:52;26.00;;;11.40;;
39540;SDS011;25219;52.244;21.006;2024-02-26T02:58:17;22.30;;;10.68;;
39540;SDS011;25219;52.244;21.006;2024-02-26T03:00:42;22.83;;;10.00;;
39540;SDS011;25219;52.244;21.006;2024-02-26T03:03:07;25.57;;;12.07;;
39540;SDS011;25219;52.244;21.006;2024-02-26T03:05:32;22.20;;;10.77;;
39540;SDS011;25219;52.244;21.006;2024-02-26T03:07:57;23.52;;;11.40;;
39540;SDS011;25219;52.244;21.006;2024-02-26T03:10:23;21.10;;;11.07;;
39540;SDS011;25219;52.244;21.006;2024-02-26T03:12:48;21.25;;;10.93;;
39540;SDS011;25219;52.244;21.006;2024-02-26T03:15:13;24.90;;;11.53;;
39540;SDS011;25219;52.244;21.006;2024-02-26T03:17:38;26.33;;;11.77;;
39540;SDS011;25219;52.244;21.006;2024-02-26T03:20:03;22.77;;;12.40;;
39540;SDS011;25219;52.244;21.006;2024-02-26T03:22:30;24.45;;;12.23;;
39540;SDS011;25219;52.244;21.006;2024-02-26T03:24:55;22.63;;;12.35;;
39540;SDS011;25219;52.244;21.006;2024-02-26T03:27:20;23.80;;;11.90;;
39540;SDS011;25219;52.244;21.006;2024-02-26T03:29:45;23.88;;;12.10;;
39540;SDS011;25219;52.244;21.006;2024-02-26T03:32:10;26.15;;;12.60;;
39540;SDS011;25219;52.244;21.006;2024-02-26T03:34:36;24.42;;;10.93;;
39540;SDS011;25219;52.244;21.006;2024-02-26T03:37:01;23.90;;;12.27;;
39540;SDS011;25219;52.244;21.006;2024-02-26T03:39:26;24.10;;;11.90;;
39540;SDS011;25219;52.244;21.006;2024-02-26T03:41:51;20.20;;;10.53;;
39540;SDS011;25219;52.244;21.006;2024-02-26T03:44:16;32.88;;;13.15;;
39540;SDS011;25219;52.244;21.006;2024-02-26T03:46:42;26.10;;;11.50;;
39540;SDS011;25219;52.244;21.006;2024-02-26T03:49:10;24.25;;;12.15;;
39540;SDS011;25219;52.244;21.006;2024-02-26T03:51:35;34.63;;;12.73;;
39540;SDS011;25219;52.244;21.006;2024-02-26T03:54:00;21.10;;;11.37;;
39540;SDS011;25219;52.244;21.006;2024-02-26T03:56:26;25.70;;;12.48;;
39540;SDS011;25219;52.244;21.006;2024-02-26T03:58:51;26.10;;;12.27;;
39540;SDS011;25219;52.244;21.006;2024-02-26T04:01:16;25.20;;;12.20;;
39540;SDS011;25219;52.244;21.006;2024-02-26T04:03:42;25.30;;;13.47;;
39540;SDS011;25219;52.244;21.006;2024-02-26T04:06:10;25.10;;;12.67;;
39540;SDS011;25219;52.244;21.006;2024-02-26T04:08:35;25.42;;;13.20;;
39540;SDS011;25219;52.244;21.006;2024-02-26T04:11:01;23.50;;;12.82;;
39540;SDS011;25219;52.244;21.006;2024-02-26T04:13:26;26.60;;;12.60;;
39540;SDS011;25219;52.244;21.006;2024-02-26T04:15:51;23.80;;;12.88;;
39540;SDS011;25219;52.244;21.006;2024-02-26T04:18:16;24.65;;;11.93;;
39540;SDS011;25219;52.244;21.006;2024-02-26T04:20:41;29.10;;;12.63;;
39540;SDS011;25219;52.244;21.006;2024-02-26T04:23:07;27.55;;;12.60;;
39540;SDS011;25219;52.244;21.006;2024-02-26T04:25:32;26.88;;;11.55;;
39540;SDS011;25219;52.244;21.006;2024-02-26T04:27:57;23.90;;;12.00;;
39540;SDS011;25219;52.244;21.006;2024-02-26T04:30:22;22.60;;;11.47;;
39540;SDS011;25219;52.244;21.006;2024-02-26T04:32:48;23.65;;;12.38;;
39540;SDS011;25219;52.244;21.006;2024-02-26T04:35:13;27.92;;;14.25;;
39540;SDS011;25219;52.244;21.006;2024-02-26T04:37:38;27.03;;;12.07;;
39540;SDS011;25219;52.244;21.006;2024-02-26T04:40:03;23.10;;;12.30;;
39540;SDS011;25219;52.244;21.006;2024-02-26T04:42:29;26.45;;;13.27;;
39540;SDS011;25219;52.244;21.006;2024-02-26T04:44:54;26.73;;;13.13;;
39540;SDS011;25219;52.244;21.006;2024-02-26T04:47:20;21.17;;;11.77;;
39540;SDS011;25219;52.244;21.006;2024-02-26T04:49:47;21.33;;;11.73;;
39540;SDS011;25219;52.244;21.006;2024-02-26T04:52:12;27.23;;;12.50;;
39540;SDS011;25219;52.244;21.006;2024-02-26T04:54:37;28.43;;;13.00;;
39540;SDS011;25219;52.244;21.006;2024-02-26T04:57:02;26.47;;;11.83;;
39540;SDS011;25219;52.244;21.006;2024-02-26T04:59:27;28.17;;;12.48;;
39540;SDS011;25219;52.244;21.006;2024-02-26T05:01:53;25.63;;;12.77;;
39540;SDS011;25219;52.244;21.006;2024-02-26T05:04:18;23.10;;;12.07;;
39540;SDS011;25219;52.244;21.006;2024-02-26T05:06:43;26.58;;;13.20;;
39540;SDS011;25219;52.244;21.006;2024-02-26T05:09:08;23.45;;;12.70;;
39540;SDS011;25219;52.244;21.006;2024-02-26T05:11:33;24.97;;;13.70;;
39540;SDS011;25219;52.244;21.006;2024-02-26T05:13:59;24.05;;;13.18;;
39540;SDS011;25219;52.244;21.006;2024-02-26T05:16:25;31.15;;;14.23;;
39540;SDS011;25219;52.244;21.006;2024-02-26T05:18:52;31.40;;;14.75;;
39540;SDS011;25219;52.244;21.006;2024-02-26T05:21:17;31.40;;;14.67;;
39540;SDS011;25219;52.244;21.006;2024-02-26T05:23:42;31.93;;;13.97;;
39540;SDS011;25219;52.244;21.006;2024-02-26T05:26:08;29.15;;;14.57;;
39540;SDS011;25219;52.244;21.006;2024-02-26T05:28:34;26.00;;;13.80;;
39540;SDS011;25219;52.244;21.006;2024-02-26T05:30:59;34.05;;;13.93;;
39540;SDS011;25219;52.244;21.006;2024-02-26T05:33:24;30.40;;;14.27;;
39540;SDS011;25219;52.244;21.006;2024-02-26T05:35:50;27.67;;;13.35;;
39540;SDS011;25219;52.244;21.006;2024-02-26T05:38:15;22.90;;;12.52;;
39540;SDS011;25219;52.244;21.006;2024-02-26T05:40:40;28.38;;;13.18;;
39540;SDS011;25219;52.244;21.006;2024-02-26T05:43:05;28.63;;;13.00;;
39540;SDS011;25219;52.244;21.006;2024-02-26T05:45:30;20.20;;;11.32;;
39540;SDS011;25219;52.244;21.006;2024-02-26T05:47:56;37.15;;;13.50;;
39540;SDS011;25219;52.244;21.006;2024-02-26T05:50:21;29.13;;;12.20;;
39540;SDS011;25219;52.244;21.006;2024-02-26T05:52:46;26.83;;;12.82;;
39540;SDS011;25219;52.244;21.006;2024-02-26T05:55:11;31.53;;;12.37;;
39540;SDS011;25219;52.244;21.006;2024-02-26T05:57:37;22.80;;;12.07;;
39540;SDS011;25219;52.244;21.006;2024-02-26T06:00:03;25.77;;;12.25;;
39540;SDS011;25219;52.244;21.006;2024-02-26T06:02:32;23.67;;;11.98;;
39540;SDS011;25219;52.244;21.006;2024-02-26T06:04:57;23.27;;;11.40;;
39540;SDS011;25219;52.244;21.006;2024-02-26T06:07:22;22.45;;;11.82;;
39540;SDS011;25219;52.244;21.006;2024-02-26T06:09:48;20.87;;;10.90;;
39540;SDS011;25219;52.244;21.006;2024-02-26T06:12:13;21.33;;;11.15;;
39540;SDS011;25219;52.244;21.006;2024-02-26T06:14:39;24.02;;;11.98;;
39540;SDS011;25219;52.244;21.006;2024-02-26T06:17:04;27.17;;;12.00;;
39540;SDS011;25219;52.244;21.006;2024-02-26T06:19:29;18.80;;;10.53;;
39540;SDS011;25219;52.244;21.006;2024-02-26T06:21:54;22.33;;;12.05;;
39540;SDS011;25219;52.244;21.006;2024-02-26T06:24:19;20.97;;;11.97;;
39540;SDS011;25219;52.244;21.006;2024-02-26T06:26:45;25.80;;;12.13;;
39540;SDS011;25219;52.244;21.006;2024-02-26T06:29:11;26.47;;;12.93;;
39540;SDS011;25219;52.244;21.006;2024-02-26T06:31:36;26.03;;;12.17;;
39540;SDS011;25219;52.244;21.006;2024-02-26T06:34:01;28.80;;;12.43;;
39540;SDS011;25219;52.244;21.006;2024-02-26T06:36:26;23.92;;;12.13;;
39540;SDS011;25219;52.244;21.006;2024-02-26T06:38:51;28.03;;;13.03;;
39540;SDS011;25219;52.244;21.006;2024-02-26T06:41:19;26.08;;;12.20;;
39540;SDS011;25219;52.244;21.006;2024-02-26T06:43:44;22.07;;;11.00;;
39540;SDS011;25219;52.244;21.006;2024-02-26T06:46:09;28.92;;;12.80;;
39540;SDS011;25219;52.244;21.006;2024-02-26T06:48:34;25.58;;;12.52;;
39540;SDS011;25219;52.244;21.006;2024-02-26T06:51:01;25.05;;;11.48;;
39540;SDS011;25219;52.244;21.006;2024-02-26T06:53:27;21.65;;;12.27;;
39540;SDS011;25219;52.244;21.006;2024-02-26T06:55:52;23.30;;;12.30;;
39540;SDS011;25219;52.244;21.006;2024-02-26T06:58:17;23.53;;;11.93;;
39540;SDS011;25219;52.244;21.006;2024-02-26T07:00:42;23.90;;;12.00;;
39540;SDS011;25219;52.244;21.006;2024-02-26T07:03:07;24.13;;;12.00;;
39540;SDS011;25219;52.244;21.006;2024-02-26T07:05:32;23.17;;;12.90;;
39540;SDS011;25219;52.244;21.006;2024-02-26T07:07:58;29.47;;;12.60;;
39540;SDS011;25219;52.244;21.006;2024-02-26T07:10:23;27.15;;;12.77;;
39540;SDS011;25219;52.244;21.006;2024-02-26T07:12:48;28.52;;;13.20;;
39540;SDS011;25219;52.244;21.006;2024-02-26T07:15:13;27.07;;;12.53;;
39540;SDS011;25219;52.244;21.006;2024-02-26T07:17:38;93.05;;;52.03;;
39540;SDS011;25219;52.244;21.006;2024-02-26T07:20:07;62.00;;;29.63;;
39540;SDS011;25219;52.244;21.006;2024-02-26T07:22:32;31.27;;;16.05;;
39540;SDS011;25219;52.244;21.006;2024-02-26T07:24:57;20.77;;;13.43;;
39540;SDS011;25219;52.244;21.006;2024-02-26T07:27:23;25.67;;;12.23;;
39540;SDS011;25219;52.244;21.006;2024-02-26T07:29:48;23.10;;;12.15;;
39540;SDS011;25219;52.244;21.006;2024-02-26T07:32:13;25.60;;;12.63;;
39540;SDS011;25219;52.244;21.006;2024-02-26T07:34:39;20.38;;;11.60;;
39540;SDS011;25219;52.244;21.006;2024-02-26T07:37:07;20.60;;;11.27;;
39540;SDS011;25219;52.244;21.006;2024-02-26T07:39:32;23.83;;;11.90;;
39540;SDS011;25219;52.244;21.006;2024-02-26T07:41:57;18.08;;;11.13;;
39540;SDS011;25219;52.244;21.006;2024-02-26T07:44:22;27.58;;;12.05;;
39540;SDS011;25219;52.244;21.006;2024-02-26T07:46:48;20.67;;;11.67;;
39540;SDS011;25219;52.244;21.006;2024-02-26T07:49:13;19.70;;;11.43;;
39540;SDS011;25219;52.244;21.006;2024-02-26T07:51:38;21.13;;;12.03;;
39540;SDS011;25219;52.244;21.006;2024-02-26T07:54:03;23.98;;;12.10;;
39540;SDS011;25219;52.244;21.006;2024-02-26T07:56:28;21.83;;;11.73;;
39540;SDS011;25219;52.244;21.006;2024-02-26T07:58:53;23.53;;;11.80;;
39540;SDS011;25219;52.244;21.006;2024-02-26T08:01:18;24.48;;;10.98;;
39540;SDS011;25219;52.244;21.006;2024-02-26T08:03:44;20.40;;;12.48;;
39540;SDS011;25219;52.244;21.006;2024-02-26T08:06:09;28.40;;;13.10;;
39540;SDS011;25219;52.244;21.006;2024-02-26T08:08:34;23.70;;;11.97;;
39540;SDS011;25219;52.244;21.006;2024-02-26T08:10:59;19.70;;;10.90;;
39540;SDS011;25219;52.244;21.006;2024-02-26T08:13:25;25.70;;;11.63;;
39540;SDS011;25219;52.244;21.006;2024-02-26T08:15:51;22.40;;;11.02;;
39540;SDS011;25219;52.244;21.006;2024-02-26T08:18:16;66.40;;;33.83;;
39540;SDS011;25219;52.244;21.006;2024-02-26T08:20:41;20.00;;;12.80;;
39540;SDS011;25219;52.244;21.006;2024-02-26T08:23:06;16.87;;;12.20;;
39540;SDS011;25219;52.244;21.006;2024-02-26T08:25:31;20.80;;;11.57;;
39540;SDS011;25219;52.244;21.006;2024-02-26T08:27:57;20.02;;;11.80;;
39540;SDS011;25219;52.244;21.006;2024-02-26T08:30:22;18.00;;;11.30;;
39540;SDS011;25219;52.244;21.006;2024-02-26T08:32:47;27.67;;;13.77;;
39540;SDS011;25219;52.244;21.006;2024-02-26T08:35:12;19.50;;;11.67;;
39540;SDS011;25219;52.244;21.006;2024-02-26T08:37:38;21.55;;;11.93;;
39540;SDS011;25219;52.244;21.006;2024-02-26T08:40:03;17.52;;;10.95;;
39540;SDS011;25219;52.244;21.006;2024-02-26T08:42:29;27.48;;;11.80;;
39540;SDS011;25219;52.244;21.006;2024-02-26T08:44:54;14.85;;;10.93;;
39540;SDS011;25219;52.244;21.006;2024-02-26T08:47:19;21.60;;;11.52;;
39540;SDS011;25219;52.244;21.006;2024-02-26T08:49:45;22.77;;;11.67;;
39540;SDS011;25219;52.244;21.006;2024-02-26T08:52:10;16.52;;;11.15;;
39540;SDS011;25219;52.244;21.006;2024-02-26T08:54:35;16.17;;;10.63;;
39540;SDS011;25219;52.244;21.006;2024-02-26T08:57:00;17.87;;;11.20;;
39540;SDS011;25219;52.244;21.006;2024-02-26T08:59:25;21.08;;;10.85;;
39540;SDS011;25219;52.244;21.006;2024-02-26T09:01:51;16.60;;;11.00;;
39540;SDS011;25219;52.244;21.006;2024-02-26T09:04:16;19.13;;;11.60;;
39540;SDS011;25219;52.244;21.006;2024-02-26T09:06:41;18.50;;;11.07;;
39540;SDS011;25219;52.244;21.006;2024-02-26T09:09:06;20.13;;;12.32;;
39540;SDS011;25219;52.244;21.006;2024-02-26T09:11:31;19.57;;;12.00;;
39540;SDS011;25219;52.244;21.006;2024-02-26T09:13:56;17.70;;;12.40;;
39540;SDS011;25219;52.244;21.006;2024-02-26T09:16:22;16.45;;;11.57;;
39540;SDS011;25219;52.244;21.006;2024-02-26T09:18:47;18.25;;;11.00;;
39540;SDS011;25219;52.244;21.006;2024-02-26T09:21:12;15.93;;;10.75;;
39540;SDS011;25219;52.244;21.006;2024-02-26T09:23:38;22.55;;;11.60;;
39540;SDS011;25219;52.244;21.006;2024-02-26T09:26:05;18.43;;;11.77;;
39540;SDS011;25219;52.244;21.006;2024-02-26T09:28:30;19.15;;;12.07;;
39540;SDS011;25219;52.244;21.006;2024-02-26T09:30:59;15.80;;;10.77;;
39540;SDS011;25219;52.244;21.006;2024-02-26T09:33:25;18.17;;;11.57;;
39540;SDS011;25219;52.244;21.006;2024-02-26T09:35:50;17.13;;;12.20;;
39540;SDS011;25219;52.244;21.006;2024-02-26T09:38:15;18.38;;;11.48;;
39540;SDS011;25219;52.244;21.006;2024-02-26T09:40:40;23.35;;;12.50;;
39540;SDS011;25219;52.244;21.006;2024-02-26T09:43:05;17.80;;;12.43;;
39540;SDS011;25219;52.244;21.006;2024-02-26T09:45:33;18.55;;;11.65;;
39540;SDS011;25219;52.244;21.006;2024-02-26T09:47:59;18.42;;;11.85;;
39540;SDS011;25219;52.244;21.006;2024-02-26T09:50:24;21.67;;;14.20;;
39540;SDS011;25219;52.244;21.006;2024-02-26T09:52:50;21.50;;;11.50;;
39540;SDS011;25219;52.244;21.006;2024-02-26T09:55:15;15.90;;;11.75;;
39540;SDS011;25219;52.244;21.006;2024-02-26T09:57:43;19.70;;;11.07;;
39540;SDS011;25219;52.244;21.006;2024-02-26T10:00:09;18.00;;;11.10;;
39540;SDS011;25219;52.244;21.006;2024-02-26T10:02:35;19.42;;;11.45;;
39540;SDS011;25219;52.244;21.006;2024-02-26T10:05:02;19.17;;;11.00;;
39540;SDS011;25219;52.244;21.006;2024-02-26T10:07:30;16.27;;;10.88;;
39540;SDS011;25219;52.244;21.006;2024-02-26T10:09:55;16.58;;;11.50;;
39540;SDS011;25219;52.244;21.006;2024-02-26T10:12:20;20.17;;;10.85;;
39540;SDS011;25219;52.244;21.006;2024-02-26T10:14:46;15.48;;;11.20;;
39540;SDS011;25219;52.244;21.006;2024-02-26T10:17:11;77.97;;;49.15;;
39540;SDS011;25219;52.244;21.006;2024-02-26T10:19:37;19.00;;;11.83;;
39540;SDS011;25219;52.244;21.006;2024-02-26T10:22:02;17.87;;;11.83;;
39540;SDS011;25219;52.244;21.006;2024-02-26T10:24:29;18.48;;;11.73;;
39540;SDS011;25219;52.244;21.006;2024-02-26T10:26:54;24.30;;;11.63;;
39540;SDS011;25219;52.244;21.006;2024-02-26T10:29:20;20.75;;;11.52;;
39540;SDS011;25219;52.244;21.006;2024-02-26T10:31:45;19.42;;;12.63;;
39540;SDS011;25219;52.244;21.006;2024-02-26T10:34:11;21.27;;;12.05;;
39540;SDS011;25219;52.244;21.006;2024-02-26T10:36:36;17.57;;;11.83;;
39540;SDS011;25219;52.244;21.006;2024-02-26T10:39:04;16.88;;;12.23;;
39540;SDS011;25219;52.244;21.006;2024-02-26T10:41:30;16.58;;;11.52;;
39540;SDS011;25219;52.244;21.006;2024-02-26T10:43:55;16.57;;;11.67;;
39540;SDS011;25219;52.244;21.006;2024-02-26T10:46:20;19.67;;;11.27;;
39540;SDS011;25219;52.244;21.006;2024-02-26T10:48:52;17.75;;;11.60;;
39540;SDS011;25219;52.244;21.006;2024-02-26T10:51:27;15.38;;;10.93;;
39540;SDS011;25219;52.244;21.006;2024-02-26T10:53:57;16.15;;;10.88;;
39540;SDS011;25219;52.244;21.006;2024-02-26T10:56:30;15.57;;;10.68;;
39540;SDS011;25219;52.244;21.006;2024-02-26T10:58:58;16.33;;;9.65;;
39540;SDS011;25219;52.244;21.006;2024-02-26T11:01:24;12.45;;;9.05;;
39540;SDS011;25219;52.244;21.006;2024-02-26T11:03:50;15.15;;;9.55;;
39540;SDS011;25219;52.244;21.006;2024-02-26T11:06:16;16.73;;;10.55;;
39540;SDS011;25219;52.244;21.006;2024-02-26T11:08:41;18.10;;;9.40;;
39540;SDS011;25219;52.244;21.006;2024-02-26T11:11:06;10.48;;;7.43;;
39540;SDS011;25219;52.244;21.006;2024-02-26T11:13:32;9.82;;;7.10;;
39540;SDS011;25219;52.244;21.006;2024-02-26T11:15:58;10.57;;;7.50;;
39540;SDS011;25219;52.244;21.006;2024-02-26T11:18:23;11.13;;;8.40;;
39540;SDS011;25219;52.244;21.006;2024-02-26T11:20:51;13.90;;;7.47;;
39540;SDS011;25219;52.244;21.006;2024-02-26T11:23:16;8.32;;;6.70;;
39540;SDS011;25219;52.244;21.006;2024-02-26T11:25:42;9.80;;;7.57;;
39540;SDS011;25219;52.244;21.006;2024-02-26T11:28:11;7.30;;;5.68;;
39540;SDS011;25219;52.244;21.006;2024-02-26T11:30:38;11.50;;;7.47;;
39540;SDS011;25219;52.244;21.006;2024-02-26T11:33:06;14.23;;;7.20;;
39540;SDS011;25219;52.244;21.006;2024-02-26T11:35:32;9.55;;;6.30;;
39540;SDS011;25219;52.244;21.006;2024-02-26T11:37:58;8.10;;;5.90;;
39540;SDS011;25219;52.244;21.006;2024-02-26T11:40:26;12.45;;;6.43;;
39540;SDS011;25219;52.244;21.006;2024-02-26T11:42:51;10.40;;;6.63;;
39540;SDS011;25219;52.244;21.006;2024-02-26T11:48:02;10.10;;;6.00;;
39540;SDS011;25219;52.244;21.006;2024-02-26T11:50:39;6.83;;;5.57;;
39540;SDS011;25219;52.244;21.006;2024-02-26T11:53:21;9.55;;;6.00;;
39540;SDS011;25219;52.244;21.006;2024-02-26T11:55:46;9.50;;;5.40;;
39540;SDS011;25219;52.244;21.006;2024-02-26T11:58:12;7.20;;;5.57;;
39540;SDS011;25219;52.244;21.006;2024-02-26T12:00:39;7.13;;;5.47;;
39540;SDS011;25219;52.244;21.006;2024-02-26T12:03:04;9.07;;;5.72;;
39540;SDS011;25219;52.244;21.006;2024-02-26T12:05:33;15.43;;;6.68;;
39540;SDS011;25219;52.244;21.006;2024-02-26T12:07:59;9.93;;;6.05;;
39540;SDS011;25219;52.244;21.006;2024-02-26T12:10:30;8.98;;;5.43;;
39540;SDS011;25219;52.244;21.006;2024-02-26T12:12:59;7.80;;;5.22;;
39540;SDS011;25219;52.244;21.006;2024-02-26T12:15:31;7.50;;;5.13;;
39540;SDS011;25219;52.244;21.006;2024-02-26T12:17:57;7.63;;;4.43;;
39540;SDS011;25219;52.244;21.006;2024-02-26T12:20:23;6.45;;;4.97;;
39540;SDS011;25219;52.244;21.006;2024-02-26T12:22:49;7.10;;;5.07;;
39540;SDS011;25219;52.244;21.006;2024-02-26T12:25:15;8.65;;;5.05;;
39540;SDS011;25219;52.244;21.006;2024-02-26T12:27:40;7.75;;;4.70;;
39540;SDS011;25219;52.244;21.006;2024-02-26T12:30:06;8.07;;;4.38;;
39540;SDS011;25219;52.244;21.006;2024-02-26T12:32:32;8.35;;;5.25;;
39540;SDS011;25219;52.244;21.006;2024-02-26T12:34:58;8.57;;;5.28;;
39540;SDS011;25219;52.244;21.006;2024-02-26T12:37:23;7.97;;;4.70;;
39540;SDS011;25219;52.244;21.006;2024-02-26T12:39:48;8.52;;;4.80;;
39540;SDS011;25219;52.244;21.006;2024-02-26T12:42:14;9.30;;;5.00;;
39540;SDS011;25219;52.244;21.006;2024-02-26T12:44:40;5.82;;;4.50;;
39540;SDS011;25219;52.244;21.006;2024-02-26T12:47:05;10.87;;;3.73;;
39540;SDS011;25219;52.244;21.006;2024-02-26T12:49:30;8.27;;;4.53;;
39540;SDS011;25219;52.244;21.006;2024-02-26T12:51:55;11.70;;;5.23;;
39540;SDS011;25219;52.244;21.006;2024-02-26T12:54:26;7.35;;;4.18;;
39540;SDS011;25219;52.244;21.006;2024-02-26T12:56:52;4.85;;;3.97;;
39540;SDS011;25219;52.244;21.006;2024-02-26T12:59:17;5.93;;;4.43;;
39540;SDS011;25219;52.244;21.006;2024-02-26T13:01:42;6.75;;;5.45;;
39540;SDS011;25219;52.244;21.006;2024-02-26T13:04:07;6.00;;;3.73;;
39540;SDS011;25219;52.244;21.006;2024-02-26T13:06:33;6.95;;;4.00;;
39540;SDS011;25219;52.244;21.006;2024-02-26T13:08:59;4.80;;;3.53;;
39540;SDS011;25219;52.244;21.006;2024-02-26T13:11:24;5.93;;;3.33;;
39540;SDS011;25219;52.244;21.006;2024-02-26T13:13:49;6.82;;;3.20;;
39540;SDS011;25219;52.244;21.006;2024-02-26T13:16:15;3.70;;;3.13;;
39540;SDS011;25219;52.244;21.006;2024-02-26T13:18:40;7.85;;;4.10;;
39540;SDS011;25219;52.244;21.006;2024-02-26T13:21:13;6.27;;;3.23;;
39540;SDS011;25219;52.244;21.006;2024-02-26T13:23:39;5.72;;;3.50;;
39540;SDS011;25219;52.244;21.006;2024-02-26T13:26:04;5.43;;;3.40;;
39540;SDS011;25219;52.244;21.006;2024-02-26T13:28:29;6.20;;;3.58;;
39540;SDS011;25219;52.244;21.006;2024-02-26T13:30:55;3.43;;;2.27;;
39540;SDS011;25219;52.244;21.006;2024-02-26T13:33:25;10.52;;;3.15;;
39540;SDS011;25219;52.244;21.006;2024-02-26T13:35:51;6.65;;;2.72;;
39540;SDS011;25219;52.244;21.006;2024-02-26T13:38:17;5.43;;;2.95;;
39540;SDS011;25219;52.244;21.006;2024-02-26T13:40:43;6.10;;;3.40;;
39540;SDS011;25219;52.244;21.006;2024-02-26T13:43:08;4.13;;;2.58;;
39540;SDS011;25219;52.244;21.006;2024-02-26T13:45:34;5.03;;;2.90;;
39540;SDS011;25219;52.244;21.006;2024-02-26T13:48:01;3.53;;;2.90;;
39540;SDS011;25219;52.244;21.006;2024-02-26T13:50:26;4.97;;;2.47;;
39540;SDS011;25219;52.244;21.006;2024-02-26T13:52:51;4.43;;;2.43;;
39540;SDS011;25219;52.244;21.006;2024-02-26T13:55:19;4.60;;;2.70;;
39540;SDS011;25219;52.244;21.006;2024-02-26T13:57:45;4.95;;;3.00;;
39540;SDS011;25219;52.244;21.006;2024-02-26T14:00:10;3.40;;;2.47;;
39540;SDS011;25219;52.244;21.006;2024-02-26T14:02:36;7.20;;;3.10;;
39540;SDS011;25219;52.244;21.006;2024-02-26T14:05:01;4.72;;;2.33;;
39540;SDS011;25219;52.244;21.006;2024-02-26T14:07:28;4.13;;;2.60;;